East Helena, Montana
Current Conditions -  °F | °C
As of 11:53 AM on Friday 28 Nov 2014 (Local Time) from KHLN Reporting Station
Broken Clouds Broken Clouds  
Wind Chill: 44°   Ceiling: 6000
Heat Index: 49°   Visibility: 10mi
Dew Point: 36°   Wind: 14mph
Humidity: 61%   Direction: 40°NE
Pressure: 29.56"   Gusts: NA
Location:  46.59°N, 111.92°W
Report Text: KHLN 281853Z 04012KT 10SM BKN060 09/02 A2956 RMK AO2 SLP017 T00940022
Loading
Personal Weather Stations






























Interactive Weather Map New forecast layout! Learn more

10-Day Weather Forecast

Advertisements
Track Severe Weather on mobile